The latest weather and runway conditions for major airports within the Toronto FIR.

CYYZ – Toronto-Lester B. Pearson International      ATIS Currently Online:  Information M
CYYZ information M weather at 2200Z , Wind 160 at 7 ,
Visibility 15 , few clouds at 25000 temperature 30 dew point 18,
Altimeter 3007 , Approach ILS runway 23 and ILS runway 24R ,
Departure runway 23 and runway 24R ,
Advise ATC that you have information M .
CYOW – Ottawa Macdonald-Cartier International      ATIS Currently Online:  Information B
CYOW information B weather at 2200Z , Wind 270 at 4 ,
Visibility 15 , Sky conditions few clouds at 24 000
temperature 28 dew point 19 , Altimeter 3002 , Approach RNAV Z
runway 25 , Departure runway 32 ,
Advise ATC that you have information B .
CYTZ – Billy Bishop Toronto City
CYTZ 232300Z AUTO 28003KT 9SM CLR 27/19 A3006 RMK SLP180 DENSITY ALT 1500FT

Suggested Runway: 26
CYXU – London International      ATIS Currently Online:  Information S
CYXU information S weather at 2300Z , Wind calm , Visibility 15,
Sky conditions few clouds at 6000 temperature 27 dew point 21,
Altimeter 3011 , Approach RNAV runway 33 , Departure runway 33,
Advise ATC that you have information S .
CYHM – John C. Munro Hamilton International
CYHM 232300Z 19006KT 15SM FEW160 26/19 A3010 RMK AC1 AC TR SLP193 DENSITY ALT 2100FT

Suggested Runway: 12
CYKF – Region of Waterloo International
CYKF 232300Z AUTO 33002KT 9SM CLR 25/19 A3012 RMK SLP198 DENSITY ALT 2200FT

Suggested Runway: 26
CYAM – Sault Ste. Marie
CYAM 232300Z 21004KT 15SM FEW180 FEW350 27/19 A3002 RMK AC1CI2 AC TR SLP166 DENSITY ALT 2100FT

Suggested Runway: 22
CYTR – Canadian Forces Base Trenton
CYTR 232300Z 20004KT 15SM SKC 25/21 A3004 RMK SLP171

Suggested Runway: 24